American Mariner — WQZ7791 — position and weather

sailwx.info

Track history (hours):
 
Tides and Currents Weather Stations Pressure Air Temp Water Temp Dewpoint Dewpoint Depression Visibility Wind Speed Wind Dir Waves Ship Positions

American Mariner

Owner: AMERICAN STEAMSHIP COMPANY, WILLIAMSVILLE, NY. More information available from US FCC via Universal Licensing System and Coast Guard Vessel Documentation Center.

Last reported at 2017-Nov-24 02:01 UTC. Time now 2017-Nov-24 02:11 UTC.
Position N 45°19' W 073°55'.

Length 222 m; draft 6.7 m.

Type: Cargo ship. MMSI: 366938710.

Date/timePositionNaut miles runAvg speedWind from/ knotsBaromVisibWave heightAir tempDewpointWater temp
2017-Nov-24 02:01N 45°19' W 073°55'1 1.3
2017-Nov-24 01:31N 45°18' W 073°56'0 0.3
2017-Nov-24 01:00N 45°18' W 073°56'1 1.3
2017-Nov-24 00:31N 45°18' W 073°56'3 5.4
2017-Nov-24 00:00N 45°15' W 073°58'510.4
2017-Nov-23 23:30N 45°13' W 074°05'811.1
2017-Nov-23 22:44N 45°13' W 074°17'303 6.0
2017-Nov-21 20:00N 42°24' W 080°06'0 0.0 220 / 321009.827.0 9.4
2017-Nov-21 08:00N 42°24' W 080°06'0 0.0 210 / 311012.527.0 7.1
2017-Nov-21 06:00N 42°24' W 080°06'23 1.9 210 / 311013.527.0 6.7
2017-Nov-20 18:00N 42°18' W 079°36'3215.8 230 / 281017.6 4.7
2017-Nov-20 16:00N 42°12' W 080°18'   210 / 151019.2 5.4 2.7
2017-Nov-15 14:00N 41°48' W 082°24'163 7.4 160 / 201018.6 5.4 4.9
2017-Nov-14 16:00N 44°30' W 082°48'5512.3 210 / 121028.1 5.4 4.4
2017-Nov-14 11:29N 45°22' W 083°16'511.5
2017-Nov-14 11:00N 45°23' W 083°24'153.1
2017-Nov-14 11:00N 45°24' W 083°24'611.6 230 / 91028.110.8 3.3
2017-Nov-14 10:30N 45°24' W 083°32'611.8
2017-Nov-14 10:00N 45°26' W 083°40'4 8.1
2017-Nov-14 09:30N 45°25' W 083°46'1 1.5
2017-Nov-14 09:00N 45°25' W 083°47'0 0.2
2017-Nov-14 08:30N 45°25' W 083°47'0 0.0
2017-Nov-14 08:01N 45°25' W 083°47'0 0.0
2017-Nov-14 07:30N 45°25' W 083°47'0 0.1
2017-Nov-14 07:00N 45°25' W 083°47'0 0.0
2017-Nov-14 06:30N 45°25' W 083°47'0 0.0
2017-Nov-14 06:01N 45°25' W 083°47'0 0.0
2017-Nov-14 05:30N 45°25' W 083°47'0 0.0
2017-Nov-14 05:01N 45°25' W 083°47'0 0.0
2017-Nov-14 04:30N 45°25' W 083°47'0 0.1
2017-Nov-14 04:00N 45°25' W 083°47'0 0.0
2017-Nov-14 03:31N 45°25' W 083°47'0 0.0
2017-Nov-14 03:00N 45°25' W 083°47'0 0.0
2017-Nov-14 02:30N 45°25' W 083°47'  
Track history (hours):
 
Tides and Currents Weather Stations Pressure Air Temp Water Temp Dewpoint Dewpoint Depression Visibility Wind Speed Wind Dir Waves Ship Positions

American Mariner

Owner: AMERICAN STEAMSHIP COMPANY, WILLIAMSVILLE, NY. More information available from US FCC via Universal Licensing System and Coast Guard Vessel Documentation Center.

Last reported at 2017-Nov-24 02:01 UTC. Time now 2017-Nov-24 02:11 UTC.
Position N 45°19' W 073°55'.

Length 222 m; draft 6.7 m.

Type: Cargo ship. MMSI: 366938710.

Date/timePositionNaut miles runAvg speedWind from/ knotsBaromVisibWave heightAir tempDewpointWater temp
2017-Nov-24 02:01N 45°19' W 073°55'1 1.3
2017-Nov-24 01:31N 45°18' W 073°56'0 0.3
2017-Nov-24 01:00N 45°18' W 073°56'1 1.3
2017-Nov-24 00:31N 45°18' W 073°56'3 5.4
2017-Nov-24 00:00N 45°15' W 073°58'510.4
2017-Nov-23 23:30N 45°13' W 074°05'811.1
2017-Nov-23 22:44N 45°13' W 074°17'303 6.0
2017-Nov-21 20:00N 42°24' W 080°06'0 0.0 220 / 321009.827.0 9.4
2017-Nov-21 08:00N 42°24' W 080°06'0 0.0 210 / 311012.527.0 7.1
2017-Nov-21 06:00N 42°24' W 080°06'23 1.9 210 / 311013.527.0 6.7
2017-Nov-20 18:00N 42°18' W 079°36'3215.8 230 / 281017.6 4.7
2017-Nov-20 16:00N 42°12' W 080°18'   210 / 151019.2 5.4 2.7
2017-Nov-15 14:00N 41°48' W 082°24'163 7.4 160 / 201018.6 5.4 4.9
2017-Nov-14 16:00N 44°30' W 082°48'5512.3 210 / 121028.1 5.4 4.4
2017-Nov-14 11:29N 45°22' W 083°16'511.5
2017-Nov-14 11:00N 45°23' W 083°24'153.1
2017-Nov-14 11:00N 45°24' W 083°24'611.6 230 / 91028.110.8 3.3
2017-Nov-14 10:30N 45°24' W 083°32'611.8
2017-Nov-14 10:00N 45°26' W 083°40'4 8.1
2017-Nov-14 09:30N 45°25' W 083°46'1 1.5
2017-Nov-14 09:00N 45°25' W 083°47'0 0.2
2017-Nov-14 08:30N 45°25' W 083°47'0 0.0
2017-Nov-14 08:01N 45°25' W 083°47'0 0.0
2017-Nov-14 07:30N 45°25' W 083°47'0 0.1
2017-Nov-14 07:00N 45°25' W 083°47'0 0.0
2017-Nov-14 06:30N 45°25' W 083°47'0 0.0
2017-Nov-14 06:01N 45°25' W 083°47'0 0.0
2017-Nov-14 05:30N 45°25' W 083°47'0 0.0
2017-Nov-14 05:01N 45°25' W 083°47'0 0.0
2017-Nov-14 04:30N 45°25' W 083°47'0 0.1
2017-Nov-14 04:00N 45°25' W 083°47'0 0.0
2017-Nov-14 03:31N 45°25' W 083°47'0 0.0
2017-Nov-14 03:00N 45°25' W 083°47'0 0.0
2017-Nov-14 02:30N 45°25' W 083°47'  

Dump ship's entire track history